sensor_id;sensor_type;location;lat;lon;timestamp;pressure;altitude;pressure_sealevel;temperature;humidity
61014;BME280;46899;47.542;19.082;2023-03-03T00:02:24;100723.28;;;1.33;100.00
61014;BME280;46899;47.542;19.082;2023-03-03T00:05:27;100726.66;;;1.30;100.00
61014;BME280;46899;47.542;19.082;2023-03-03T00:08:30;100722.44;;;1.34;100.00
61014;BME280;46899;47.542;19.082;2023-03-03T00:11:33;100725.03;;;1.38;100.00
61014;BME280;46899;47.542;19.082;2023-03-03T00:14:36;100722.44;;;1.37;100.00
61014;BME280;46899;47.542;19.082;2023-03-03T00:17:38;100723.28;;;1.33;100.00
61014;BME280;46899;47.542;19.082;2023-03-03T00:20:45;100721.50;;;1.27;100.00
61014;BME280;46899;47.542;19.082;2023-03-03T00:23:49;100713.06;;;1.36;100.00
61014;BME280;46899;47.542;19.082;2023-03-03T00:26:52;100712.97;;;1.28;100.00
61014;BME280;46899;47.542;19.082;2023-03-03T00:29:58;100710.38;;;1.22;100.00
61014;BME280;46899;47.542;19.082;2023-03-03T00:33:02;100711.19;;;1.18;100.00
61014;BME280;46899;47.542;19.082;2023-03-03T00:42:20;100700.81;;;1.06;100.00
61014;BME280;46899;47.542;19.082;2023-03-03T00:45:25;100701.69;;;1.05;100.00
61014;BME280;46899;47.542;19.082;2023-03-03T00:51:37;100702.56;;;1.06;100.00
61014;BME280;46899;47.542;19.082;2023-03-03T00:54:40;100689.62;;;0.97;100.00
61014;BME280;46899;47.542;19.082;2023-03-03T00:57:42;100695.53;;;0.88;100.00
61014;BME280;46899;47.542;19.082;2023-03-03T01:00:46;100692.16;;;0.89;100.00
61014;BME280;46899;47.542;19.082;2023-03-03T01:03:49;100680.25;;;0.94;100.00
61014;BME280;46899;47.542;19.082;2023-03-03T01:06:52;100687.03;;;0.89;100.00
61014;BME280;46899;47.542;19.082;2023-03-03T01:09:55;100683.59;;;0.87;100.00
61014;BME280;46899;47.542;19.082;2023-03-03T01:12:57;100688.69;;;0.84;100.00
61014;BME280;46899;47.542;19.082;2023-03-03T01:16:00;100682.66;;;0.81;100.00
61014;BME280;46899;47.542;19.082;2023-03-03T01:19:03;100675.81;;;0.75;100.00
61014;BME280;46899;47.542;19.082;2023-03-03T01:22:06;100678.28;;;0.69;100.00
61014;BME280;46899;47.542;19.082;2023-03-03T01:25:09;100681.00;;;0.84;100.00
61014;BME280;46899;47.542;19.082;2023-03-03T01:28:12;100679.19;;;0.74;100.00
61014;BME280;46899;47.542;19.082;2023-03-03T01:31:14;100678.19;;;0.61;100.00
61014;BME280;46899;47.542;19.082;2023-03-03T01:34:17;100680.75;;;0.60;100.00
61014;BME280;46899;47.542;19.082;2023-03-03T01:37:20;100673.88;;;0.56;100.00
61014;BME280;46899;47.542;19.082;2023-03-03T01:40:24;100673.88;;;0.56;100.00
61014;BME280;46899;47.542;19.082;2023-03-03T01:43:28;100672.97;;;0.51;100.00
61014;BME280;46899;47.542;19.082;2023-03-03T01:46:39;100660.97;;;0.44;100.00
61014;BME280;46899;47.542;19.082;2023-03-03T01:49:59;100660.06;;;0.40;100.00
61014;BME280;46899;47.542;19.082;2023-03-03T01:53:03;100660.87;;;0.38;100.00
61014;BME280;46899;47.542;19.082;2023-03-03T01:56:06;100655.75;;;0.38;100.00
61014;BME280;46899;47.542;19.082;2023-03-03T01:59:19;100661.69;;;0.34;100.00
61014;BME280;46899;47.542;19.082;2023-03-03T02:02:22;100657.41;;;0.30;100.00
61014;BME280;46899;47.542;19.082;2023-03-03T02:05:26;100666.84;;;0.35;100.00
61014;BME280;46899;47.542;19.082;2023-03-03T02:08:31;100661.69;;;0.34;100.00
61014;BME280;46899;47.542;19.082;2023-03-03T02:11:39;100651.47;;;0.34;100.00
61014;BME280;46899;47.542;19.082;2023-03-03T02:14:44;100655.78;;;0.39;100.00
61014;BME280;46899;47.542;19.082;2023-03-03T02:17:47;100645.59;;;0.45;100.00
61014;BME280;46899;47.542;19.082;2023-03-03T02:20:53;100653.28;;;0.44;100.00
61014;BME280;46899;47.542;19.082;2023-03-03T02:27:01;100654.16;;;0.46;100.00
61014;BME280;46899;47.542;19.082;2023-03-03T02:30:13;100658.41;;;0.44;100.00
61014;BME280;46899;47.542;19.082;2023-03-03T02:33:16;100654.97;;;0.43;100.00
61014;BME280;46899;47.542;19.082;2023-03-03T02:36:23;100651.75;;;0.62;100.00
61014;BME280;46899;47.542;19.082;2023-03-03T02:39:26;100653.53;;;0.71;100.00
61014;BME280;46899;47.542;19.082;2023-03-03T02:42:28;100646.66;;;0.61;100.00
61014;BME280;46899;47.542;19.082;2023-03-03T02:45:32;100648.25;;;0.54;100.00
61014;BME280;46899;47.542;19.082;2023-03-03T02:48:35;100643.97;;;0.52;100.00
61014;BME280;46899;47.542;19.082;2023-03-03T02:51:37;100646.53;;;0.50;100.00
61014;BME280;46899;47.542;19.082;2023-03-03T02:54:40;100636.25;;;0.46;100.00
61014;BME280;46899;47.542;19.082;2023-03-03T02:57:42;100641.31;;;0.43;100.00
61014;BME280;46899;47.542;19.082;2023-03-03T03:00:45;100637.88;;;0.39;100.00
61014;BME280;46899;47.542;19.082;2023-03-03T03:03:51;100630.16;;;0.35;100.00
61014;BME280;46899;47.542;19.082;2023-03-03T03:06:54;100629.34;;;0.40;100.00
61014;BME280;46899;47.542;19.082;2023-03-03T03:09:57;100625.19;;;0.47;100.00
61014;BME280;46899;47.542;19.082;2023-03-03T03:13:01;100630.34;;;0.51;100.00
61014;BME280;46899;47.542;19.082;2023-03-03T03:16:04;100628.59;;;0.52;100.00
61014;BME280;46899;47.542;19.082;2023-03-03T03:19:06;100621.78;;;0.51;100.00
61014;BME280;46899;47.542;19.082;2023-03-03T03:22:10;100622.81;;;0.69;100.00
61014;BME280;46899;47.542;19.082;2023-03-03T03:25:13;100620.25;;;0.71;100.00
61014;BME280;46899;47.542;19.082;2023-03-03T03:28:16;100616.94;;;0.81;100.00
61014;BME280;46899;47.542;19.082;2023-03-03T03:31:19;100611.84;;;0.84;100.00
61014;BME280;46899;47.542;19.082;2023-03-03T03:34:22;100612.75;;;0.92;100.00
61014;BME280;46899;47.542;19.082;2023-03-03T03:37:25;100611.97;;;0.96;100.00
61014;BME280;46899;47.542;19.082;2023-03-03T03:40:28;100607.66;;;0.97;100.00
61014;BME280;46899;47.542;19.082;2023-03-03T03:43:31;100606.84;;;0.99;100.00
61014;BME280;46899;47.542;19.082;2023-03-03T03:46:34;100609.44;;;1.04;100.00
61014;BME280;46899;47.542;19.082;2023-03-03T03:49:37;100607.72;;;1.04;100.00
61014;BME280;46899;47.542;19.082;2023-03-03T03:52:40;100607.75;;;1.07;100.00
61014;BME280;46899;47.542;19.082;2023-03-03T03:55:45;100597.50;;;1.04;100.00
61014;BME280;46899;47.542;19.082;2023-03-03T03:58:48;100599.19;;;1.02;100.00
61014;BME280;46899;47.542;19.082;2023-03-03T04:01:51;100599.16;;;0.96;100.00
61014;BME280;46899;47.542;19.082;2023-03-03T04:04:54;100597.38;;;0.92;100.00
61014;BME280;46899;47.542;19.082;2023-03-03T04:07:57;100595.75;;;1.00;100.00
61014;BME280;46899;47.542;19.082;2023-03-03T04:10:59;100599.13;;;0.95;100.00
61014;BME280;46899;47.542;19.082;2023-03-03T04:14:02;100593.97;;;0.89;100.00
61014;BME280;46899;47.542;19.082;2023-03-03T04:17:05;100593.94;;;0.84;100.00
61014;BME280;46899;47.542;19.082;2023-03-03T04:20:09;100595.63;;;0.84;100.00
61014;BME280;46899;47.542;19.082;2023-03-03T04:23:12;100594.75;;;0.83;100.00
61014;BME280;46899;47.542;19.082;2023-03-03T04:26:16;100594.75;;;0.83;100.00
61014;BME280;46899;47.542;19.082;2023-03-03T04:29:19;100586.22;;;0.83;100.00
61014;BME280;46899;47.542;19.082;2023-03-03T04:32:22;100591.38;;;0.84;100.00
61014;BME280;46899;47.542;19.082;2023-03-03T04:35:25;100589.75;;;0.95;100.00
61014;BME280;46899;47.542;19.082;2023-03-03T04:38:28;100593.13;;;0.93;100.00
61014;BME280;46899;47.542;19.082;2023-03-03T04:41:35;100589.72;;;0.89;100.00
61014;BME280;46899;47.542;19.082;2023-03-03T04:44:38;100589.72;;;0.89;100.00
61014;BME280;46899;47.542;19.082;2023-03-03T04:47:41;100587.09;;;0.82;100.00
61014;BME280;46899;47.542;19.082;2023-03-03T04:50:43;100595.59;;;0.78;100.00
61014;BME280;46899;47.542;19.082;2023-03-03T04:53:46;100599.78;;;0.71;100.00
61014;BME280;46899;47.542;19.082;2023-03-03T04:56:48;100592.91;;;0.65;100.00
61014;BME280;46899;47.542;19.082;2023-03-03T04:59:52;100590.44;;;0.75;100.00
61014;BME280;46899;47.542;19.082;2023-03-03T05:02:54;100588.78;;;0.80;100.00
61014;BME280;46899;47.542;19.082;2023-03-03T05:05:57;100593.91;;;0.81;100.00
61014;BME280;46899;47.542;19.082;2023-03-03T05:09:00;100595.59;;;0.81;100.00
61014;BME280;46899;47.542;19.082;2023-03-03T05:12:03;100599.84;;;0.77;100.00
61014;BME280;46899;47.542;19.082;2023-03-03T05:15:05;100590.47;;;0.79;100.00
61014;BME280;46899;47.542;19.082;2023-03-03T05:18:08;100591.31;;;0.78;100.00
61014;BME280;46899;47.542;19.082;2023-03-03T05:21:11;100593.91;;;0.83;100.00
61014;BME280;46899;47.542;19.082;2023-03-03T05:24:14;100592.19;;;0.82;100.00
61014;BME280;46899;47.542;19.082;2023-03-03T05:27:16;100596.41;;;0.75;100.00
61014;BME280;46899;47.542;19.082;2023-03-03T05:30:19;100593.78;;;0.67;100.00
61014;BME280;46899;47.542;19.082;2023-03-03T05:33:21;100597.22;;;0.69;100.00
61014;BME280;46899;47.542;19.082;2023-03-03T05:36:24;100599.87;;;0.83;100.00
61014;BME280;46899;47.542;19.082;2023-03-03T05:39:27;100604.09;;;0.77;100.00
61014;BME280;46899;47.542;19.082;2023-03-03T05:42:30;100601.50;;;0.72;100.00
61014;BME280;46899;47.542;19.082;2023-03-03T05:45:32;100604.03;;;0.69;100.00
61014;BME280;46899;47.542;19.082;2023-03-03T05:48:35;100608.41;;;0.81;100.00
61014;BME280;46899;47.542;19.082;2023-03-03T05:51:38;100610.09;;;0.77;100.00
61014;BME280;46899;47.542;19.082;2023-03-03T05:54:40;100605.03;;;0.86;100.00
61014;BME280;46899;47.542;19.082;2023-03-03T05:57:43;100606.87;;;1.02;100.00
61014;BME280;46899;47.542;19.082;2023-03-03T06:00:46;100606.97;;;1.14;100.00
61014;BME280;46899;47.542;19.082;2023-03-03T06:03:48;100611.25;;;1.17;100.00
61014;BME280;46899;47.542;19.082;2023-03-03T06:06:51;100616.37;;;1.18;100.00
61014;BME280;46899;47.542;19.082;2023-03-03T06:09:53;100615.56;;;1.22;100.00
61014;BME280;46899;47.542;19.082;2023-03-03T06:12:56;100609.63;;;1.29;100.00
61014;BME280;46899;47.542;19.082;2023-03-03T06:15:59;100612.28;;;1.45;100.00
61014;BME280;46899;47.542;19.082;2023-03-03T06:19:02;100615.81;;;1.62;100.00
61014;BME280;46899;47.542;19.082;2023-03-03T06:22:04;100607.34;;;1.78;100.00
61014;BME280;46899;47.542;19.082;2023-03-03T06:25:07;100606.56;;;2.03;100.00
61014;BME280;46899;47.542;19.082;2023-03-03T06:28:09;100613.44;;;2.13;100.00
61014;BME280;46899;47.542;19.082;2023-03-03T06:31:12;100612.66;;;2.38;100.00
61014;BME280;46899;47.542;19.082;2023-03-03T06:34:14;100617.84;;;2.56;100.00
61014;BME280;46899;47.542;19.082;2023-03-03T06:37:17;100619.56;;;2.82;100.00
61014;BME280;46899;47.542;19.082;2023-03-03T06:40:20;100616.16;;;2.93;100.00
61014;BME280;46899;47.542;19.082;2023-03-03T06:43:23;100623.00;;;3.09;100.00
61014;BME280;46899;47.542;19.082;2023-03-03T06:46:25;100629.81;;;3.30;100.00
61014;BME280;46899;47.542;19.082;2023-03-03T06:49:28;100632.41;;;3.33;100.00
61014;BME280;46899;47.542;19.082;2023-03-03T06:52:31;100634.13;;;3.32;100.00
61014;BME280;46899;47.542;19.082;2023-03-03T06:55:33;100642.72;;;3.27;100.00
61014;BME280;46899;47.542;19.082;2023-03-03T06:58:36;100645.25;;;3.33;100.00
61014;BME280;46899;47.542;19.082;2023-03-03T07:01:39;100644.41;;;3.31;100.00
61014;BME280;46899;47.542;19.082;2023-03-03T07:04:42;100646.09;;;3.53;100.00
61014;BME280;46899;47.542;19.082;2023-03-03T07:07:44;100638.38;;;3.56;100.00
61014;BME280;46899;47.542;19.082;2023-03-03T07:10:47;100645.19;;;3.75;100.00
61014;BME280;46899;47.542;19.082;2023-03-03T07:13:51;100644.28;;;3.90;100.00
61014;BME280;46899;47.542;19.082;2023-03-03T07:16:55;100651.94;;;4.09;100.00
61014;BME280;46899;47.542;19.082;2023-03-03T07:19:59;100657.84;;;4.27;100.00
61014;BME280;46899;47.542;19.082;2023-03-03T07:26:25;100657.69;;;4.61;100.00
61014;BME280;46899;47.542;19.082;2023-03-03T07:29:30;100663.69;;;4.62;100.00
61014;BME280;46899;47.542;19.082;2023-03-03T07:32:37;100663.75;;;4.51;100.00
61014;BME280;46899;47.542;19.082;2023-03-03T07:35:42;100667.97;;;4.64;100.00
61014;BME280;46899;47.542;19.082;2023-03-03T07:38:50;100666.28;;;4.57;100.00
61014;BME280;46899;47.542;19.082;2023-03-03T07:41:57;100672.19;;;4.76;100.00
61014;BME280;46899;47.542;19.082;2023-03-03T07:45:01;100665.13;;;5.02;99.71
61014;BME280;46899;47.542;19.082;2023-03-03T07:51:22;100665.69;;;5.39;98.85
61014;BME280;46899;47.542;19.082;2023-03-03T07:54:30;100668.97;;;5.58;97.89
61014;BME280;46899;47.542;19.082;2023-03-03T07:57:36;100666.41;;;5.51;97.54
61014;BME280;46899;47.542;19.082;2023-03-03T08:03:47;100662.12;;;5.52;98.06
61014;BME280;46899;47.542;19.082;2023-03-03T08:09:58;100659.97;;;5.96;95.52
61014;BME280;46899;47.542;19.082;2023-03-03T08:13:04;100656.19;;;6.23;93.06
61014;BME280;46899;47.542;19.082;2023-03-03T08:19:12;100653.16;;;6.58;91.88
61014;BME280;46899;47.542;19.082;2023-03-03T08:22:28;100651.28;;;6.67;90.51
61014;BME280;46899;47.542;19.082;2023-03-03T08:25:32;100657.47;;;6.59;90.55
61014;BME280;46899;47.542;19.082;2023-03-03T08:28:35;100659.00;;;6.70;90.14
61014;BME280;46899;47.542;19.082;2023-03-03T08:31:37;100659.41;;;7.01;88.09
61014;BME280;46899;47.542;19.082;2023-03-03T08:34:43;100661.66;;;7.22;87.81
61014;BME280;46899;47.542;19.082;2023-03-03T08:37:45;100663.75;;;7.51;86.03
61014;BME280;46899;47.542;19.082;2023-03-03T08:40:48;100652.84;;;7.81;84.53
61014;BME280;46899;47.542;19.082;2023-03-03T08:43:51;100657.16;;;8.27;81.53
61014;BME280;46899;47.542;19.082;2023-03-03T08:46:54;100649.03;;;8.42;80.71
61014;BME280;46899;47.542;19.082;2023-03-03T08:49:56;100657.75;;;8.77;78.72
61014;BME280;46899;47.542;19.082;2023-03-03T08:52:59;100655.62;;;8.93;78.15
61014;BME280;46899;47.542;19.082;2023-03-03T08:56:02;100643.28;;;9.04;77.32
61014;BME280;46899;47.542;19.082;2023-03-03T08:59:05;100648.31;;;9.10;76.14
61014;BME280;46899;47.542;19.082;2023-03-03T09:02:08;100645.59;;;9.15;77.07
61014;BME280;46899;47.542;19.082;2023-03-03T09:05:10;100652.44;;;9.52;75.46
61014;BME280;46899;47.542;19.082;2023-03-03T09:08:13;100646.69;;;9.74;73.40
61014;BME280;46899;47.542;19.082;2023-03-03T09:11:18;100651.13;;;9.36;75.01
61014;BME280;46899;47.542;19.082;2023-03-03T09:14:24;100649.12;;;9.12;75.46
61014;BME280;46899;47.542;19.082;2023-03-03T09:17:30;100644.44;;;8.91;77.10
61014;BME280;46899;47.542;19.082;2023-03-03T09:20:43;100645.53;;;8.81;78.18
61014;BME280;46899;47.542;19.082;2023-03-03T09:23:56;100644.28;;;8.60;79.03
61014;BME280;46899;47.542;19.082;2023-03-03T09:26:59;100642.66;;;8.56;80.36
61014;BME280;46899;47.542;19.082;2023-03-03T09:30:10;100643.34;;;8.64;80.89
61014;BME280;46899;47.542;19.082;2023-03-03T09:33:24;100639.78;;;9.05;79.88
61014;BME280;46899;47.542;19.082;2023-03-03T09:36:28;100630.78;;;9.52;78.21
61014;BME280;46899;47.542;19.082;2023-03-03T09:39:30;100640.50;;;9.78;76.83
61014;BME280;46899;47.542;19.082;2023-03-03T09:45:58;100643.22;;;10.64;74.78
61014;BME280;46899;47.542;19.082;2023-03-03T10:01:46;100625.31;;;11.59;70.73
61014;BME280;46899;47.542;19.082;2023-03-03T10:11:21;100617.50;;;11.59;70.10
61014;BME280;46899;47.542;19.082;2023-03-03T10:21:01;100613.28;;;11.55;68.70
61014;BME280;46899;47.542;19.082;2023-03-03T10:27:25;100604.53;;;11.58;69.26
61014;BME280;46899;47.542;19.082;2023-03-03T10:37:57;100603.34;;;11.68;68.19
61014;BME280;46899;47.542;19.082;2023-03-03T10:56:56;100577.62;;;12.05;65.67
61014;BME280;46899;47.542;19.082;2023-03-03T11:19:20;100553.72;;;13.63;58.39
61014;BME280;46899;47.542;19.082;2023-03-03T11:22:46;100549.84;;;13.71;57.29
61014;BME280;46899;47.542;19.082;2023-03-03T11:26:25;100552.34;;;13.75;56.64
61014;BME280;46899;47.542;19.082;2023-03-03T11:32:35;100525.50;;;13.51;57.13
61014;BME280;46899;47.542;19.082;2023-03-03T11:38:59;100523.56;;;13.75;57.07
61014;BME280;46899;47.542;19.082;2023-03-03T11:45:29;100525.47;;;13.90;54.42
61014;BME280;46899;47.542;19.082;2023-03-03T11:51:49;100515.19;;;13.48;55.53
61014;BME280;46899;47.542;19.082;2023-03-03T11:55:07;100514.97;;;13.52;55.77
61014;BME280;46899;47.542;19.082;2023-03-03T11:58:16;100520.03;;;13.17;55.99
61014;BME280;46899;47.542;19.082;2023-03-03T12:01:29;100509.09;;;12.87;57.21
61014;BME280;46899;47.542;19.082;2023-03-03T12:11:39;100497.13;;;13.23;54.77
61014;BME280;46899;47.542;19.082;2023-03-03T12:39:57;100477.06;;;14.54;52.31
61014;BME280;46899;47.542;19.082;2023-03-03T12:49:43;100491.56;;;14.95;47.97
61014;BME280;46899;47.542;19.082;2023-03-03T12:56:12;100478.75;;;15.06;47.61
61014;BME280;46899;47.542;19.082;2023-03-03T13:15:18;100467.47;;;15.22;45.63
61014;BME280;46899;47.542;19.082;2023-03-03T13:21:53;100460.59;;;15.19;43.81
61014;BME280;46899;47.542;19.082;2023-03-03T13:28:34;100450.53;;;14.60;44.69
61014;BME280;46899;47.542;19.082;2023-03-03T13:31:45;100453.19;;;14.77;44.67
61014;BME280;46899;47.542;19.082;2023-03-03T13:34:53;100451.94;;;14.50;44.91
61014;BME280;46899;47.542;19.082;2023-03-03T13:38:00;100441.31;;;14.36;45.28
61014;BME280;46899;47.542;19.082;2023-03-03T13:41:20;100451.16;;;14.12;46.12
61014;BME280;46899;47.542;19.082;2023-03-03T13:44:58;100444.56;;;14.04;45.71
61014;BME280;46899;47.542;19.082;2023-03-03T13:51:22;100439.72;;;13.96;45.65
61014;BME280;46899;47.542;19.082;2023-03-03T13:54:39;100440.66;;;13.77;45.07
61014;BME280;46899;47.542;19.082;2023-03-03T14:00:56;100433.28;;;13.66;46.47
61014;BME280;46899;47.542;19.082;2023-03-03T14:07:40;100439.34;;;13.29;48.50
61014;BME280;46899;47.542;19.082;2023-03-03T14:20:21;100418.94;;;12.78;50.38
61014;BME280;46899;47.542;19.082;2023-03-03T14:26:53;100419.16;;;12.74;49.83
61014;BME280;46899;47.542;19.082;2023-03-03T14:29:56;100413.50;;;12.63;50.35
61014;BME280;46899;47.542;19.082;2023-03-03T14:36:05;100416.00;;;12.46;50.16
61014;BME280;46899;47.542;19.082;2023-03-03T14:42:30;100408.97;;;12.26;50.86
61014;BME280;46899;47.542;19.082;2023-03-03T14:48:42;100418.34;;;12.10;51.71
61014;BME280;46899;47.542;19.082;2023-03-03T14:51:51;100407.34;;;12.02;51.62
61014;BME280;46899;47.542;19.082;2023-03-03T14:54:55;100417.34;;;11.69;52.55
61014;BME280;46899;47.542;19.082;2023-03-03T14:57:57;100416.19;;;11.53;53.38
61014;BME280;46899;47.542;19.082;2023-03-03T15:07:20;100411.72;;;11.10;55.04
61014;BME280;46899;47.542;19.082;2023-03-03T15:13:37;100429.44;;;11.00;55.71
61014;BME280;46899;47.542;19.082;2023-03-03T15:16:40;100423.37;;;11.00;55.71
61014;BME280;46899;47.542;19.082;2023-03-03T15:20:03;100431.13;;;11.02;55.78
61014;BME280;46899;47.542;19.082;2023-03-03T15:23:18;100425.12;;;10.99;55.77
61014;BME280;46899;47.542;19.082;2023-03-03T15:36:12;100434.28;;;10.62;56.67
61014;BME280;46899;47.542;19.082;2023-03-03T15:42:30;100426.25;;;10.42;57.16
61014;BME280;46899;47.542;19.082;2023-03-03T15:45:44;100431.94;;;10.28;56.48
61014;BME280;46899;47.542;19.082;2023-03-03T15:52:14;100438.62;;;10.07;57.03
61014;BME280;46899;47.542;19.082;2023-03-03T15:55:31;100438.22;;;9.93;57.58
61014;BME280;46899;47.542;19.082;2023-03-03T16:02:14;100445.44;;;9.84;57.84
61014;BME280;46899;47.542;19.082;2023-03-03T16:05:21;100450.00;;;9.76;57.96
61014;BME280;46899;47.542;19.082;2023-03-03T16:08:27;100451.19;;;9.66;58.43
61014;BME280;46899;47.542;19.082;2023-03-03T16:21:27;100458.72;;;9.15;59.95
61014;BME280;46899;47.542;19.082;2023-03-03T16:40:19;100477.09;;;8.40;64.10
61014;BME280;46899;47.542;19.082;2023-03-03T16:46:44;100481.41;;;8.01;65.62
61014;BME280;46899;47.542;19.082;2023-03-03T16:56:22;100485.28;;;7.83;65.35
61014;BME280;46899;47.542;19.082;2023-03-03T16:59:34;100490.47;;;7.83;65.35
61014;BME280;46899;47.542;19.082;2023-03-03T17:05:52;100485.94;;;7.53;66.49
61014;BME280;46899;47.542;19.082;2023-03-03T17:12:37;100497.28;;;7.02;69.12
61014;BME280;46899;47.542;19.082;2023-03-03T17:25:20;100507.06;;;6.33;72.76
61014;BME280;46899;47.542;19.082;2023-03-03T17:28:42;100504.84;;;6.10;74.13
61014;BME280;46899;47.542;19.082;2023-03-03T17:31:53;100506.81;;;5.91;75.75
61014;BME280;46899;47.542;19.082;2023-03-03T18:01:07;100509.31;;;5.27;79.68
61014;BME280;46899;47.542;19.082;2023-03-03T18:10:51;100508.72;;;5.01;80.72
61014;BME280;46899;47.542;19.082;2023-03-03T18:23:41;100519.59;;;5.32;80.05
61014;BME280;46899;47.542;19.082;2023-03-03T18:26:44;100517.09;;;5.21;80.06
61014;BME280;46899;47.542;19.082;2023-03-03T18:33:09;100514.56;;;5.17;80.24
61014;BME280;46899;47.542;19.082;2023-03-03T18:36:59;100508.59;;;5.12;79.85
61014;BME280;46899;47.542;19.082;2023-03-03T18:42:41;100506.03;;;5.09;80.31
61014;BME280;46899;47.542;19.082;2023-03-03T18:51:50;100510.97;;;5.31;77.28
61014;BME280;46899;47.542;19.082;2023-03-03T19:05:22;100524.97;;;5.84;72.39
61014;BME280;46899;47.542;19.082;2023-03-03T19:14:47;100519.81;;;5.84;72.14
61014;BME280;46899;47.542;19.082;2023-03-03T19:17:50;100525.84;;;5.84;71.79
61014;BME280;46899;47.542;19.082;2023-03-03T19:20:56;100525.75;;;5.92;70.23
61014;BME280;46899;47.542;19.082;2023-03-03T19:43:07;100542.19;;;5.86;69.35
61014;BME280;46899;47.542;19.082;2023-03-03T19:52:45;100547.91;;;5.36;72.40
61014;BME280;46899;47.542;19.082;2023-03-03T19:55:58;100548.75;;;5.38;72.23
61014;BME280;46899;47.542;19.082;2023-03-03T20:15:10;100553.22;;;5.21;71.07
61014;BME280;46899;47.542;19.082;2023-03-03T20:18:32;100549.09;;;5.02;71.39
61014;BME280;46899;47.542;19.082;2023-03-03T20:21:42;100550.78;;;5.06;71.81
61014;BME280;46899;47.542;19.082;2023-03-03T20:24:55;100554.19;;;5.10;71.24
61014;BME280;46899;47.542;19.082;2023-03-03T20:53:38;100551.81;;;4.85;69.46
61014;BME280;46899;47.542;19.082;2023-03-03T20:56:49;100552.66;;;4.87;69.47
61014;BME280;46899;47.542;19.082;2023-03-03T20:59:54;100554.38;;;4.89;69.11
61014;BME280;46899;47.542;19.082;2023-03-03T21:06:14;100551.16;;;4.64;70.19
61014;BME280;46899;47.542;19.082;2023-03-03T21:09:25;100555.41;;;4.66;69.93
61014;BME280;46899;47.542;19.082;2023-03-03T21:12:29;100568.44;;;4.50;70.54
61014;BME280;46899;47.542;19.082;2023-03-03T21:15:32;100559.97;;;4.30;71.39
61014;BME280;46899;47.542;19.082;2023-03-03T21:18:36;100561.81;;;4.08;73.36
61014;BME280;46899;47.542;19.082;2023-03-03T21:21:40;100558.47;;;3.95;73.90
61014;BME280;46899;47.542;19.082;2023-03-03T21:27:52;100556.03;;;3.70;74.89
61014;BME280;46899;47.542;19.082;2023-03-03T21:31:14;100556.88;;;3.69;75.11
61014;BME280;46899;47.542;19.082;2023-03-03T21:37:42;100557.81;;;3.37;76.70
61014;BME280;46899;47.542;19.082;2023-03-03T21:40:57;100558.72;;;3.29;76.78
61014;BME280;46899;47.542;19.082;2023-03-03T21:43:59;100560.44;;;3.21;77.08
61014;BME280;46899;47.542;19.082;2023-03-03T21:47:03;100562.91;;;3.51;75.95
61014;BME280;46899;47.542;19.082;2023-03-03T21:50:06;100564.69;;;3.46;75.80
61014;BME280;46899;47.542;19.082;2023-03-03T21:53:09;100557.84;;;3.28;76.30
61014;BME280;46899;47.542;19.082;2023-03-03T21:56:11;100565.59;;;3.12;77.37
61014;BME280;46899;47.542;19.082;2023-03-03T21:59:15;100564.75;;;2.98;78.31
61014;BME280;46899;47.542;19.082;2023-03-03T22:02:18;100561.34;;;2.90;79.54
61014;BME280;46899;47.542;19.082;2023-03-03T22:05:22;100564.75;;;2.81;80.01
61014;BME280;46899;47.542;19.082;2023-03-03T22:08:25;100573.31;;;2.71;80.55
61014;BME280;46899;47.542;19.082;2023-03-03T22:11:29;100569.06;;;2.61;81.04
61014;BME280;46899;47.542;19.082;2023-03-03T22:14:31;100569.06;;;2.61;81.41
61014;BME280;46899;47.542;19.082;2023-03-03T22:17:34;100567.31;;;2.57;82.14
61014;BME280;46899;47.542;19.082;2023-03-03T22:20:36;100577.59;;;2.51;82.76
61014;BME280;46899;47.542;19.082;2023-03-03T22:23:39;100574.16;;;2.59;83.14
61014;BME280;46899;47.542;19.082;2023-03-03T22:26:41;100577.59;;;2.49;83.02
61014;BME280;46899;47.542;19.082;2023-03-03T22:29:44;100580.16;;;2.52;82.30
61014;BME280;46899;47.542;19.082;2023-03-03T22:32:46;100579.28;;;2.43;83.12
61014;BME280;46899;47.542;19.082;2023-03-03T22:35:53;100585.28;;;2.43;83.24
61014;BME280;46899;47.542;19.082;2023-03-03T22:38:56;100582.69;;;2.36;84.79
61014;BME280;46899;47.542;19.082;2023-03-03T22:41:58;100586.13;;;2.33;84.53
61014;BME280;46899;47.542;19.082;2023-03-03T22:45:01;100582.72;;;2.33;84.72
61014;BME280;46899;47.542;19.082;2023-03-03T22:48:04;100586.97;;;2.38;83.65
61014;BME280;46899;47.542;19.082;2023-03-03T22:51:06;100592.97;;;2.28;84.10
61014;BME280;46899;47.542;19.082;2023-03-03T22:54:09;100591.25;;;2.21;83.30
61014;BME280;46899;47.542;19.082;2023-03-03T22:57:11;100589.53;;;2.38;82.18
61014;BME280;46899;47.542;19.082;2023-03-03T23:00:14;100586.13;;;2.39;81.79
61014;BME280;46899;47.542;19.082;2023-03-03T23:03:17;100584.41;;;2.34;81.60
61014;BME280;46899;47.542;19.082;2023-03-03T23:06:25;100575.00;;;2.39;81.01
61014;BME280;46899;47.542;19.082;2023-03-03T23:09:27;100577.56;;;2.34;80.83
61014;BME280;46899;47.542;19.082;2023-03-03T23:12:30;100579.25;;;2.22;81.24
61014;BME280;46899;47.542;19.082;2023-03-03T23:15:33;100578.38;;;2.14;81.41
61014;BME280;46899;47.542;19.082;2023-03-03T23:18:35;100577.50;;;2.02;82.05
61014;BME280;46899;47.542;19.082;2023-03-03T23:21:38;100580.03;;;1.92;82.68
61014;BME280;46899;47.542;19.082;2023-03-03T23:24:41;100579.19;;;1.94;82.97